sensor_id;sensor_type;location;lat;lon;timestamp;P1;durP1;ratioP1;P2;durP2;ratioP2
21943;SDS011;11136;48.778;9.126;2023-03-01T00:00:44;15.73;;;9.05;;
21943;SDS011;11136;48.778;9.126;2023-03-01T00:03:11;16.52;;;10.25;;
21943;SDS011;11136;48.778;9.126;2023-03-01T00:05:43;14.95;;;9.90;;
21943;SDS011;11136;48.778;9.126;2023-03-01T00:08:09;17.25;;;9.90;;
21943;SDS011;11136;48.778;9.126;2023-03-01T00:10:35;15.52;;;9.73;;
21943;SDS011;11136;48.778;9.126;2023-03-01T00:13:00;17.98;;;10.27;;
21943;SDS011;11136;48.778;9.126;2023-03-01T00:15:26;18.27;;;10.02;;
21943;SDS011;11136;48.778;9.126;2023-03-01T00:17:52;14.70;;;9.57;;
21943;SDS011;11136;48.778;9.126;2023-03-01T00:20:18;16.92;;;10.43;;
21943;SDS011;11136;48.778;9.126;2023-03-01T00:22:43;20.08;;;9.60;;
21943;SDS011;11136;48.778;9.126;2023-03-01T00:25:09;18.27;;;10.68;;
21943;SDS011;11136;48.778;9.126;2023-03-01T00:27:34;19.15;;;10.68;;
21943;SDS011;11136;48.778;9.126;2023-03-01T00:30:00;17.90;;;10.15;;
21943;SDS011;11136;48.778;9.126;2023-03-01T00:32:26;19.85;;;11.20;;
21943;SDS011;11136;48.778;9.126;2023-03-01T00:34:51;19.40;;;10.80;;
21943;SDS011;11136;48.778;9.126;2023-03-01T00:37:21;15.52;;;9.52;;
21943;SDS011;11136;48.778;9.126;2023-03-01T00:39:47;15.55;;;9.20;;
21943;SDS011;11136;48.778;9.126;2023-03-01T00:42:12;19.50;;;10.27;;
21943;SDS011;11136;48.778;9.126;2023-03-01T00:44:38;15.57;;;9.60;;
21943;SDS011;11136;48.778;9.126;2023-03-01T00:47:04;15.80;;;9.68;;
21943;SDS011;11136;48.778;9.126;2023-03-01T00:49:29;14.68;;;8.98;;
21943;SDS011;11136;48.778;9.126;2023-03-01T00:51:55;19.17;;;10.50;;
21943;SDS011;11136;48.778;9.126;2023-03-01T00:54:20;21.00;;;10.57;;
21943;SDS011;11136;48.778;9.126;2023-03-01T00:56:46;15.85;;;9.25;;
21943;SDS011;11136;48.778;9.126;2023-03-01T00:59:12;15.52;;;9.32;;
21943;SDS011;11136;48.778;9.126;2023-03-01T01:01:37;15.63;;;10.10;;
21943;SDS011;11136;48.778;9.126;2023-03-01T01:04:04;16.83;;;9.52;;
21943;SDS011;11136;48.778;9.126;2023-03-01T01:06:32;16.13;;;9.63;;
21943;SDS011;11136;48.778;9.126;2023-03-01T01:09:04;24.10;;;10.00;;
21943;SDS011;11136;48.778;9.126;2023-03-01T01:11:32;23.90;;;11.00;;
21943;SDS011;11136;48.778;9.126;2023-03-01T01:13:58;17.50;;;9.07;;
21943;SDS011;11136;48.778;9.126;2023-03-01T01:16:24;16.85;;;10.15;;
21943;SDS011;11136;48.778;9.126;2023-03-01T01:18:51;18.42;;;10.20;;
21943;SDS011;11136;48.778;9.126;2023-03-01T01:21:18;18.17;;;10.75;;
21943;SDS011;11136;48.778;9.126;2023-03-01T01:23:46;16.67;;;9.73;;
21943;SDS011;11136;48.778;9.126;2023-03-01T01:26:16;16.42;;;10.10;;
21943;SDS011;11136;48.778;9.126;2023-03-01T01:28:45;18.80;;;9.73;;
21943;SDS011;11136;48.778;9.126;2023-03-01T01:31:11;20.40;;;10.43;;
21943;SDS011;11136;48.778;9.126;2023-03-01T01:33:37;17.48;;;10.02;;
21943;SDS011;11136;48.778;9.126;2023-03-01T01:36:04;21.55;;;10.60;;
21943;SDS011;11136;48.778;9.126;2023-03-01T01:38:30;18.85;;;11.05;;
21943;SDS011;11136;48.778;9.126;2023-03-01T01:40:56;21.75;;;12.30;;
21943;SDS011;11136;48.778;9.126;2023-03-01T01:43:23;19.70;;;11.15;;
21943;SDS011;11136;48.778;9.126;2023-03-01T01:45:51;19.95;;;10.82;;
21943;SDS011;11136;48.778;9.126;2023-03-01T01:48:21;16.80;;;9.63;;
21943;SDS011;11136;48.778;9.126;2023-03-01T01:50:55;21.05;;;10.23;;
21943;SDS011;11136;48.778;9.126;2023-03-01T01:53:23;19.38;;;10.93;;
21943;SDS011;11136;48.778;9.126;2023-03-01T01:55:56;19.92;;;11.20;;
21943;SDS011;11136;48.778;9.126;2023-03-01T01:58:26;17.55;;;9.38;;
21943;SDS011;11136;48.778;9.126;2023-03-01T02:00:54;18.83;;;10.90;;
21943;SDS011;11136;48.778;9.126;2023-03-01T02:03:22;18.55;;;10.50;;
21943;SDS011;11136;48.778;9.126;2023-03-01T02:08:53;16.95;;;10.10;;
21943;SDS011;11136;48.778;9.126;2023-03-01T02:11:22;18.33;;;11.73;;
21943;SDS011;11136;48.778;9.126;2023-03-01T02:13:48;20.92;;;12.38;;
21943;SDS011;11136;48.778;9.126;2023-03-01T02:16:15;20.45;;;10.82;;
21943;SDS011;11136;48.778;9.126;2023-03-01T02:18:41;16.80;;;10.23;;
21943;SDS011;11136;48.778;9.126;2023-03-01T02:21:13;19.50;;;11.43;;
21943;SDS011;11136;48.778;9.126;2023-03-01T02:24:30;21.02;;;11.25;;
21943;SDS011;11136;48.778;9.126;2023-03-01T02:27:12;19.70;;;10.40;;
21943;SDS011;11136;48.778;9.126;2023-03-01T02:29:38;19.42;;;12.25;;
21943;SDS011;11136;48.778;9.126;2023-03-01T02:32:04;23.05;;;11.55;;
21943;SDS011;11136;48.778;9.126;2023-03-01T02:34:30;19.42;;;11.70;;
21943;SDS011;11136;48.778;9.126;2023-03-01T02:36:59;19.05;;;10.40;;
21943;SDS011;11136;48.778;9.126;2023-03-01T02:39:34;22.08;;;11.60;;
21943;SDS011;11136;48.778;9.126;2023-03-01T02:42:07;20.58;;;11.10;;
21943;SDS011;11136;48.778;9.126;2023-03-01T02:44:38;21.00;;;11.80;;
21943;SDS011;11136;48.778;9.126;2023-03-01T02:47:03;25.83;;;12.10;;
21943;SDS011;11136;48.778;9.126;2023-03-01T02:49:31;21.45;;;10.70;;
21943;SDS011;11136;48.778;9.126;2023-03-01T02:55:04;17.58;;;10.95;;
21943;SDS011;11136;48.778;9.126;2023-03-01T02:57:32;17.33;;;10.80;;
21943;SDS011;11136;48.778;9.126;2023-03-01T03:00:00;17.83;;;10.65;;
21943;SDS011;11136;48.778;9.126;2023-03-01T03:02:32;22.63;;;11.30;;
21943;SDS011;11136;48.778;9.126;2023-03-01T03:05:23;22.17;;;11.98;;
21943;SDS011;11136;48.778;9.126;2023-03-01T03:07:49;21.50;;;11.52;;
21943;SDS011;11136;48.778;9.126;2023-03-01T03:10:22;23.92;;;12.63;;
21943;SDS011;11136;48.778;9.126;2023-03-01T03:12:52;22.63;;;11.75;;
21943;SDS011;11136;48.778;9.126;2023-03-01T03:15:22;17.65;;;11.75;;
21943;SDS011;11136;48.778;9.126;2023-03-01T03:17:48;19.67;;;11.75;;
21943;SDS011;11136;48.778;9.126;2023-03-01T03:20:15;16.75;;;11.32;;
21943;SDS011;11136;48.778;9.126;2023-03-01T03:22:47;23.42;;;11.68;;
21943;SDS011;11136;48.778;9.126;2023-03-01T03:25:14;23.17;;;12.00;;
21943;SDS011;11136;48.778;9.126;2023-03-01T03:27:41;19.73;;;11.65;;
21943;SDS011;11136;48.778;9.126;2023-03-01T03:30:09;19.42;;;12.10;;
21943;SDS011;11136;48.778;9.126;2023-03-01T03:32:37;19.40;;;11.93;;
21943;SDS011;11136;48.778;9.126;2023-03-01T03:35:04;25.08;;;12.88;;
21943;SDS011;11136;48.778;9.126;2023-03-01T03:37:43;24.23;;;12.63;;
21943;SDS011;11136;48.778;9.126;2023-03-01T03:40:27;22.17;;;11.50;;
21943;SDS011;11136;48.778;9.126;2023-03-01T03:43:05;24.30;;;13.15;;
21943;SDS011;11136;48.778;9.126;2023-03-01T03:45:33;21.00;;;12.07;;
21943;SDS011;11136;48.778;9.126;2023-03-01T03:48:00;23.08;;;12.35;;
21943;SDS011;11136;48.778;9.126;2023-03-01T03:50:26;20.63;;;11.93;;
21943;SDS011;11136;48.778;9.126;2023-03-01T03:52:51;20.23;;;12.05;;
21943;SDS011;11136;48.778;9.126;2023-03-01T03:55:17;21.92;;;12.65;;
21943;SDS011;11136;48.778;9.126;2023-03-01T03:57:44;20.58;;;12.43;;
21943;SDS011;11136;48.778;9.126;2023-03-01T04:00:16;23.55;;;12.55;;
21943;SDS011;11136;48.778;9.126;2023-03-01T04:02:44;22.05;;;12.77;;
21943;SDS011;11136;48.778;9.126;2023-03-01T04:05:11;20.38;;;12.07;;
21943;SDS011;11136;48.778;9.126;2023-03-01T04:07:39;18.27;;;11.43;;
21943;SDS011;11136;48.778;9.126;2023-03-01T04:10:06;23.23;;;12.48;;
21943;SDS011;11136;48.778;9.126;2023-03-01T04:12:37;21.52;;;12.38;;
21943;SDS011;11136;48.778;9.126;2023-03-01T04:15:06;22.80;;;12.48;;
21943;SDS011;11136;48.778;9.126;2023-03-01T04:17:44;25.35;;;12.23;;
21943;SDS011;11136;48.778;9.126;2023-03-01T04:20:12;22.73;;;12.15;;
21943;SDS011;11136;48.778;9.126;2023-03-01T04:22:49;22.08;;;12.02;;
21943;SDS011;11136;48.778;9.126;2023-03-01T04:25:22;22.20;;;12.00;;
21943;SDS011;11136;48.778;9.126;2023-03-01T04:27:47;20.77;;;13.07;;
21943;SDS011;11136;48.778;9.126;2023-03-01T04:30:13;19.15;;;12.68;;
21943;SDS011;11136;48.778;9.126;2023-03-01T04:32:39;21.48;;;12.45;;
21943;SDS011;11136;48.778;9.126;2023-03-01T04:35:05;23.50;;;13.30;;
21943;SDS011;11136;48.778;9.126;2023-03-01T04:37:31;22.20;;;13.98;;
21943;SDS011;11136;48.778;9.126;2023-03-01T04:39:57;21.02;;;12.93;;
21943;SDS011;11136;48.778;9.126;2023-03-01T04:42:22;22.20;;;12.55;;
21943;SDS011;11136;48.778;9.126;2023-03-01T04:44:48;24.67;;;12.98;;
21943;SDS011;11136;48.778;9.126;2023-03-01T04:47:16;22.95;;;13.13;;
21943;SDS011;11136;48.778;9.126;2023-03-01T04:49:42;22.00;;;12.85;;
21943;SDS011;11136;48.778;9.126;2023-03-01T04:52:07;20.88;;;11.98;;
21943;SDS011;11136;48.778;9.126;2023-03-01T04:54:34;21.55;;;13.05;;
21943;SDS011;11136;48.778;9.126;2023-03-01T04:57:01;20.65;;;12.30;;
21943;SDS011;11136;48.778;9.126;2023-03-01T04:59:27;23.42;;;12.48;;
21943;SDS011;11136;48.778;9.126;2023-03-01T05:01:54;21.25;;;12.25;;
21943;SDS011;11136;48.778;9.126;2023-03-01T05:04:21;24.67;;;12.48;;
21943;SDS011;11136;48.778;9.126;2023-03-01T05:06:47;20.58;;;12.82;;
21943;SDS011;11136;48.778;9.126;2023-03-01T05:09:12;22.77;;;13.40;;
21943;SDS011;11136;48.778;9.126;2023-03-01T05:11:38;22.35;;;12.68;;
21943;SDS011;11136;48.778;9.126;2023-03-01T05:14:07;24.25;;;12.80;;
21943;SDS011;11136;48.778;9.126;2023-03-01T05:16:34;21.92;;;13.05;;
21943;SDS011;11136;48.778;9.126;2023-03-01T05:19:01;23.92;;;12.63;;
21943;SDS011;11136;48.778;9.126;2023-03-01T05:21:36;22.63;;;12.15;;
21943;SDS011;11136;48.778;9.126;2023-03-01T05:24:22;22.02;;;11.23;;
21943;SDS011;11136;48.778;9.126;2023-03-01T05:26:48;20.45;;;12.15;;
21943;SDS011;11136;48.778;9.126;2023-03-01T05:29:16;20.55;;;12.40;;
21943;SDS011;11136;48.778;9.126;2023-03-01T05:31:42;26.63;;;13.88;;
21943;SDS011;11136;48.778;9.126;2023-03-01T05:34:08;25.17;;;12.30;;
21943;SDS011;11136;48.778;9.126;2023-03-01T05:36:34;22.70;;;13.00;;
21943;SDS011;11136;48.778;9.126;2023-03-01T05:39:00;23.92;;;11.98;;
21943;SDS011;11136;48.778;9.126;2023-03-01T05:41:25;20.52;;;11.98;;
21943;SDS011;11136;48.778;9.126;2023-03-01T05:43:51;21.80;;;12.80;;
21943;SDS011;11136;48.778;9.126;2023-03-01T05:46:16;19.80;;;13.00;;
21943;SDS011;11136;48.778;9.126;2023-03-01T05:48:42;22.35;;;12.60;;
21943;SDS011;11136;48.778;9.126;2023-03-01T05:51:08;23.42;;;12.38;;
21943;SDS011;11136;48.778;9.126;2023-03-01T05:53:34;23.80;;;13.25;;
21943;SDS011;11136;48.778;9.126;2023-03-01T05:56:00;27.23;;;13.27;;
21943;SDS011;11136;48.778;9.126;2023-03-01T05:58:28;25.60;;;13.45;;
21943;SDS011;11136;48.778;9.126;2023-03-01T06:00:54;22.98;;;12.13;;
21943;SDS011;11136;48.778;9.126;2023-03-01T06:03:19;21.63;;;13.15;;
21943;SDS011;11136;48.778;9.126;2023-03-01T06:05:45;26.52;;;14.60;;
21943;SDS011;11136;48.778;9.126;2023-03-01T06:08:11;22.55;;;12.80;;
21943;SDS011;11136;48.778;9.126;2023-03-01T06:10:37;22.60;;;12.98;;
21943;SDS011;11136;48.778;9.126;2023-03-01T06:13:03;24.92;;;13.85;;
21943;SDS011;11136;48.778;9.126;2023-03-01T06:15:29;18.55;;;11.40;;
21943;SDS011;11136;48.778;9.126;2023-03-01T06:17:55;21.38;;;13.27;;
21943;SDS011;11136;48.778;9.126;2023-03-01T06:20:22;25.02;;;11.80;;
21943;SDS011;11136;48.778;9.126;2023-03-01T06:22:50;21.75;;;12.98;;
21943;SDS011;11136;48.778;9.126;2023-03-01T06:25:17;29.58;;;12.57;;
21943;SDS011;11136;48.778;9.126;2023-03-01T06:27:45;21.45;;;12.07;;
21943;SDS011;11136;48.778;9.126;2023-03-01T06:30:12;19.42;;;11.82;;
21943;SDS011;11136;48.778;9.126;2023-03-01T06:32:39;19.77;;;12.10;;
21943;SDS011;11136;48.778;9.126;2023-03-01T06:35:08;22.70;;;13.25;;
21943;SDS011;11136;48.778;9.126;2023-03-01T06:37:35;20.00;;;12.77;;
21943;SDS011;11136;48.778;9.126;2023-03-01T06:40:02;21.10;;;12.43;;
21943;SDS011;11136;48.778;9.126;2023-03-01T06:42:36;23.55;;;13.93;;
21943;SDS011;11136;48.778;9.126;2023-03-01T06:45:03;26.52;;;12.57;;
21943;SDS011;11136;48.778;9.126;2023-03-01T06:47:30;23.90;;;13.00;;
21943;SDS011;11136;48.778;9.126;2023-03-01T06:49:58;18.00;;;12.30;;
21943;SDS011;11136;48.778;9.126;2023-03-01T06:52:24;26.15;;;13.38;;
21943;SDS011;11136;48.778;9.126;2023-03-01T06:54:50;24.08;;;14.05;;
21943;SDS011;11136;48.778;9.126;2023-03-01T06:57:15;21.20;;;12.80;;
21943;SDS011;11136;48.778;9.126;2023-03-01T06:59:41;22.75;;;13.13;;
21943;SDS011;11136;48.778;9.126;2023-03-01T07:02:09;24.25;;;13.70;;
21943;SDS011;11136;48.778;9.126;2023-03-01T07:04:35;25.25;;;13.20;;
21943;SDS011;11136;48.778;9.126;2023-03-01T07:07:01;22.33;;;12.73;;
21943;SDS011;11136;48.778;9.126;2023-03-01T07:09:27;23.70;;;13.40;;
21943;SDS011;11136;48.778;9.126;2023-03-01T07:11:52;21.35;;;12.38;;
21943;SDS011;11136;48.778;9.126;2023-03-01T07:14:18;24.70;;;13.45;;
21943;SDS011;11136;48.778;9.126;2023-03-01T07:16:44;26.73;;;13.65;;
21943;SDS011;11136;48.778;9.126;2023-03-01T07:19:10;27.33;;;13.63;;
21943;SDS011;11136;48.778;9.126;2023-03-01T07:21:36;27.65;;;12.80;;
21943;SDS011;11136;48.778;9.126;2023-03-01T07:24:04;24.05;;;13.32;;
21943;SDS011;11136;48.778;9.126;2023-03-01T07:26:31;24.48;;;13.23;;
21943;SDS011;11136;48.778;9.126;2023-03-01T07:28:58;22.23;;;13.90;;
21943;SDS011;11136;48.778;9.126;2023-03-01T07:31:24;23.75;;;13.38;;
21943;SDS011;11136;48.778;9.126;2023-03-01T07:33:52;26.23;;;13.35;;
21943;SDS011;11136;48.778;9.126;2023-03-01T07:36:18;23.02;;;14.02;;
21943;SDS011;11136;48.778;9.126;2023-03-01T07:38:44;25.52;;;14.38;;
21943;SDS011;11136;48.778;9.126;2023-03-01T07:41:09;23.23;;;13.68;;
21943;SDS011;11136;48.778;9.126;2023-03-01T07:43:35;26.60;;;14.30;;
21943;SDS011;11136;48.778;9.126;2023-03-01T07:46:01;25.05;;;14.73;;
21943;SDS011;11136;48.778;9.126;2023-03-01T07:48:27;24.98;;;13.85;;
21943;SDS011;11136;48.778;9.126;2023-03-01T07:50:54;21.92;;;12.90;;
21943;SDS011;11136;48.778;9.126;2023-03-01T07:53:19;24.60;;;14.20;;
21943;SDS011;11136;48.778;9.126;2023-03-01T07:55:45;23.98;;;14.55;;
21943;SDS011;11136;48.778;9.126;2023-03-01T07:58:10;26.02;;;14.00;;
21943;SDS011;11136;48.778;9.126;2023-03-01T08:00:36;29.77;;;14.52;;
21943;SDS011;11136;48.778;9.126;2023-03-01T08:03:02;25.63;;;14.05;;
21943;SDS011;11136;48.778;9.126;2023-03-01T08:05:27;25.90;;;14.57;;
21943;SDS011;11136;48.778;9.126;2023-03-01T08:07:53;25.00;;;13.88;;
21943;SDS011;11136;48.778;9.126;2023-03-01T08:10:19;25.77;;;14.57;;
21943;SDS011;11136;48.778;9.126;2023-03-01T08:12:45;24.83;;;13.95;;
21943;SDS011;11136;48.778;9.126;2023-03-01T08:15:11;25.73;;;15.27;;
21943;SDS011;11136;48.778;9.126;2023-03-01T08:17:36;26.35;;;14.57;;
21943;SDS011;11136;48.778;9.126;2023-03-01T08:20:02;25.70;;;14.90;;
21943;SDS011;11136;48.778;9.126;2023-03-01T08:22:29;25.88;;;14.98;;
21943;SDS011;11136;48.778;9.126;2023-03-01T08:24:55;25.52;;;14.55;;
21943;SDS011;11136;48.778;9.126;2023-03-01T08:27:21;24.52;;;14.43;;
21943;SDS011;11136;48.778;9.126;2023-03-01T08:29:46;26.65;;;14.68;;
21943;SDS011;11136;48.778;9.126;2023-03-01T08:32:12;29.17;;;14.98;;
21943;SDS011;11136;48.778;9.126;2023-03-01T08:34:37;22.42;;;13.23;;
21943;SDS011;11136;48.778;9.126;2023-03-01T08:37:03;23.58;;;14.27;;
21943;SDS011;11136;48.778;9.126;2023-03-01T08:39:28;28.25;;;15.32;;
21943;SDS011;11136;48.778;9.126;2023-03-01T08:41:54;26.75;;;15.23;;
21943;SDS011;11136;48.778;9.126;2023-03-01T08:44:20;30.45;;;15.63;;
21943;SDS011;11136;48.778;9.126;2023-03-01T08:46:46;23.55;;;14.10;;
21943;SDS011;11136;48.778;9.126;2023-03-01T08:49:13;23.38;;;14.52;;
21943;SDS011;11136;48.778;9.126;2023-03-01T08:51:40;20.02;;;13.57;;
21943;SDS011;11136;48.778;9.126;2023-03-01T08:54:10;21.77;;;14.77;;
21943;SDS011;11136;48.778;9.126;2023-03-01T08:56:36;22.70;;;14.32;;
21943;SDS011;11136;48.778;9.126;2023-03-01T08:59:03;21.67;;;13.90;;
21943;SDS011;11136;48.778;9.126;2023-03-01T09:01:29;25.08;;;14.95;;
21943;SDS011;11136;48.778;9.126;2023-03-01T09:03:55;26.23;;;14.63;;
21943;SDS011;11136;48.778;9.126;2023-03-01T09:06:20;23.50;;;14.77;;
21943;SDS011;11136;48.778;9.126;2023-03-01T09:08:49;21.85;;;14.10;;
21943;SDS011;11136;48.778;9.126;2023-03-01T09:11:16;24.15;;;14.27;;
21943;SDS011;11136;48.778;9.126;2023-03-01T09:13:44;21.40;;;14.15;;
21943;SDS011;11136;48.778;9.126;2023-03-01T09:16:12;21.92;;;14.50;;
21943;SDS011;11136;48.778;9.126;2023-03-01T09:18:40;23.80;;;14.68;;
21943;SDS011;11136;48.778;9.126;2023-03-01T09:21:13;22.38;;;13.95;;
21943;SDS011;11136;48.778;9.126;2023-03-01T09:23:41;26.52;;;14.95;;
21943;SDS011;11136;48.778;9.126;2023-03-01T09:26:09;25.88;;;14.00;;
21943;SDS011;11136;48.778;9.126;2023-03-01T09:28:37;26.75;;;15.77;;
21943;SDS011;11136;48.778;9.126;2023-03-01T09:31:03;19.55;;;13.57;;
21943;SDS011;11136;48.778;9.126;2023-03-01T09:33:30;22.38;;;14.50;;
21943;SDS011;11136;48.778;9.126;2023-03-01T09:36:01;23.45;;;14.98;;
21943;SDS011;11136;48.778;9.126;2023-03-01T09:40:54;21.55;;;13.50;;
21943;SDS011;11136;48.778;9.126;2023-03-01T09:46:05;20.85;;;14.43;;
21943;SDS011;11136;48.778;9.126;2023-03-01T09:48:41;22.38;;;13.93;;
21943;SDS011;11136;48.778;9.126;2023-03-01T09:51:32;22.40;;;14.38;;
21943;SDS011;11136;48.778;9.126;2023-03-01T09:54:02;23.23;;;13.80;;
21943;SDS011;11136;48.778;9.126;2023-03-01T09:56:32;20.27;;;13.32;;
21943;SDS011;11136;48.778;9.126;2023-03-01T10:09:39;21.27;;;14.05;;
21943;SDS011;11136;48.778;9.126;2023-03-01T10:12:11;20.73;;;14.32;;
21943;SDS011;11136;48.778;9.126;2023-03-01T10:17:37;22.67;;;14.27;;
21943;SDS011;11136;48.778;9.126;2023-03-01T10:20:14;23.60;;;14.25;;
21943;SDS011;11136;48.778;9.126;2023-03-01T10:22:52;22.33;;;15.18;;
21943;SDS011;11136;48.778;9.126;2023-03-01T10:30:44;25.67;;;14.83;;
21943;SDS011;11136;48.778;9.126;2023-03-01T10:35:46;20.77;;;13.07;;
21943;SDS011;11136;48.778;9.126;2023-03-01T10:38:14;23.20;;;13.85;;
21943;SDS011;11136;48.778;9.126;2023-03-01T10:41:00;20.23;;;13.00;;
21943;SDS011;11136;48.778;9.126;2023-03-01T10:43:47;22.23;;;13.30;;
21943;SDS011;11136;48.778;9.126;2023-03-01T10:51:40;21.05;;;14.27;;
21943;SDS011;11136;48.778;9.126;2023-03-01T10:54:25;22.77;;;13.65;;
21943;SDS011;11136;48.778;9.126;2023-03-01T10:56:57;19.38;;;12.98;;
21943;SDS011;11136;48.778;9.126;2023-03-01T10:59:28;21.98;;;12.75;;
21943;SDS011;11136;48.778;9.126;2023-03-01T11:04:27;20.25;;;12.45;;
21943;SDS011;11136;48.778;9.126;2023-03-01T11:07:00;18.17;;;12.52;;
21943;SDS011;11136;48.778;9.126;2023-03-01T11:09:26;20.92;;;12.48;;
21943;SDS011;11136;48.778;9.126;2023-03-01T11:12:03;22.63;;;12.93;;
21943;SDS011;11136;48.778;9.126;2023-03-01T11:14:37;20.00;;;13.43;;
21943;SDS011;11136;48.778;9.126;2023-03-01T11:17:12;21.77;;;12.35;;
21943;SDS011;11136;48.778;9.126;2023-03-01T11:20:07;19.33;;;12.25;;
21943;SDS011;11136;48.778;9.126;2023-03-01T11:22:49;18.23;;;12.60;;
21943;SDS011;11136;48.778;9.126;2023-03-01T11:25:19;20.38;;;12.18;;
21943;SDS011;11136;48.778;9.126;2023-03-01T11:27:50;21.48;;;13.57;;
21943;SDS011;11136;48.778;9.126;2023-03-01T11:33:03;19.38;;;12.65;;
21943;SDS011;11136;48.778;9.126;2023-03-01T11:35:47;23.95;;;13.82;;
21943;SDS011;11136;48.778;9.126;2023-03-01T11:38:26;21.35;;;13.18;;
21943;SDS011;11136;48.778;9.126;2023-03-01T11:45:57;19.75;;;12.98;;
21943;SDS011;11136;48.778;9.126;2023-03-01T11:48:52;20.73;;;13.30;;
21943;SDS011;11136;48.778;9.126;2023-03-01T11:57:01;22.38;;;13.57;;
21943;SDS011;11136;48.778;9.126;2023-03-01T12:08:47;25.20;;;13.15;;
21943;SDS011;11136;48.778;9.126;2023-03-01T12:11:28;20.17;;;12.93;;
21943;SDS011;11136;48.778;9.126;2023-03-01T12:25:39;18.70;;;12.35;;
21943;SDS011;11136;48.778;9.126;2023-03-01T12:28:17;19.75;;;13.02;;
21943;SDS011;11136;48.778;9.126;2023-03-01T12:39:40;18.98;;;12.23;;
21943;SDS011;11136;48.778;9.126;2023-03-01T12:42:26;15.98;;;11.30;;
21943;SDS011;11136;48.778;9.126;2023-03-01T12:50:57;15.52;;;10.13;;
21943;SDS011;11136;48.778;9.126;2023-03-01T12:53:24;18.60;;;11.77;;
21943;SDS011;11136;48.778;9.126;2023-03-01T12:55:53;16.48;;;11.75;;
21943;SDS011;11136;48.778;9.126;2023-03-01T12:58:24;16.25;;;11.38;;
21943;SDS011;11136;48.778;9.126;2023-03-01T13:04:43;17.33;;;11.40;;
21943;SDS011;11136;48.778;9.126;2023-03-01T13:06:54;15.32;;;10.55;;
21943;SDS011;11136;48.778;9.126;2023-03-01T13:12:41;18.85;;;10.25;;
21943;SDS011;11136;48.778;9.126;2023-03-01T13:17:47;16.50;;;10.70;;
21943;SDS011;11136;48.778;9.126;2023-03-01T13:20:18;15.88;;;10.13;;
21943;SDS011;11136;48.778;9.126;2023-03-01T13:22:46;15.40;;;10.63;;
21943;SDS011;11136;48.778;9.126;2023-03-01T13:25:24;18.05;;;10.98;;
21943;SDS011;11136;48.778;9.126;2023-03-01T13:27:50;19.17;;;12.48;;
21943;SDS011;11136;48.778;9.126;2023-03-01T13:35:53;16.67;;;12.02;;
21943;SDS011;11136;48.778;9.126;2023-03-01T13:41:09;16.17;;;11.02;;
21943;SDS011;11136;48.778;9.126;2023-03-01T13:43:36;18.23;;;11.95;;
21943;SDS011;11136;48.778;9.126;2023-03-01T13:46:07;22.25;;;12.48;;
21943;SDS011;11136;48.778;9.126;2023-03-01T13:48:36;17.98;;;13.43;;
21943;SDS011;11136;48.778;9.126;2023-03-01T13:51:09;21.48;;;13.05;;
21943;SDS011;11136;48.778;9.126;2023-03-01T13:53:39;14.98;;;12.32;;
21943;SDS011;11136;48.778;9.126;2023-03-01T13:56:09;20.50;;;13.07;;
21943;SDS011;11136;48.778;9.126;2023-03-01T14:01:27;17.20;;;12.52;;
21943;SDS011;11136;48.778;9.126;2023-03-01T14:03:55;17.05;;;12.63;;
21943;SDS011;11136;48.778;9.126;2023-03-01T14:06:22;17.67;;;12.35;;
21943;SDS011;11136;48.778;9.126;2023-03-01T14:11:56;17.58;;;13.23;;
21943;SDS011;11136;48.778;9.126;2023-03-01T14:17:16;17.52;;;12.45;;
21943;SDS011;11136;48.778;9.126;2023-03-01T14:19:46;17.52;;;12.80;;
21943;SDS011;11136;48.778;9.126;2023-03-01T14:24:39;20.67;;;14.18;;
21943;SDS011;11136;48.778;9.126;2023-03-01T14:27:11;23.88;;;13.80;;
21943;SDS011;11136;48.778;9.126;2023-03-01T14:29:39;17.90;;;13.35;;
21943;SDS011;11136;48.778;9.126;2023-03-01T14:32:12;19.25;;;13.57;;
21943;SDS011;11136;48.778;9.126;2023-03-01T14:34:44;20.38;;;14.55;;
21943;SDS011;11136;48.778;9.126;2023-03-01T14:37:21;22.80;;;14.85;;
21943;SDS011;11136;48.778;9.126;2023-03-01T14:39:51;21.90;;;14.98;;
21943;SDS011;11136;48.778;9.126;2023-03-01T14:42:18;20.23;;;14.10;;
21943;SDS011;11136;48.778;9.126;2023-03-01T14:44:46;20.83;;;15.23;;
21943;SDS011;11136;48.778;9.126;2023-03-01T14:47:15;19.45;;;13.95;;
21943;SDS011;11136;48.778;9.126;2023-03-01T14:49:54;22.05;;;14.70;;
21943;SDS011;11136;48.778;9.126;2023-03-01T14:52:34;20.08;;;14.52;;
21943;SDS011;11136;48.778;9.126;2023-03-01T14:55:06;20.98;;;14.95;;
21943;SDS011;11136;48.778;9.126;2023-03-01T14:57:42;19.38;;;14.52;;
21943;SDS011;11136;48.778;9.126;2023-03-01T15:00:19;21.13;;;14.00;;
21943;SDS011;11136;48.778;9.126;2023-03-01T15:02:54;18.63;;;14.50;;
21943;SDS011;11136;48.778;9.126;2023-03-01T15:05:29;20.08;;;13.85;;
21943;SDS011;11136;48.778;9.126;2023-03-01T15:07:58;20.05;;;14.48;;
21943;SDS011;11136;48.778;9.126;2023-03-01T15:10:27;22.77;;;15.07;;
21943;SDS011;11136;48.778;9.126;2023-03-01T15:12:54;20.35;;;14.55;;
21943;SDS011;11136;48.778;9.126;2023-03-01T15:18:01;21.48;;;13.73;;
21943;SDS011;11136;48.778;9.126;2023-03-01T15:20:30;21.65;;;14.55;;
21943;SDS011;11136;48.778;9.126;2023-03-01T15:23:00;20.58;;;14.77;;
21943;SDS011;11136;48.778;9.126;2023-03-01T15:25:28;23.02;;;15.10;;
21943;SDS011;11136;48.778;9.126;2023-03-01T15:27:55;22.80;;;15.05;;
21943;SDS011;11136;48.778;9.126;2023-03-01T15:30:23;21.92;;;14.82;;
21943;SDS011;11136;48.778;9.126;2023-03-01T15:33:47;22.80;;;15.40;;
21943;SDS011;11136;48.778;9.126;2023-03-01T15:35:54;21.23;;;14.13;;
21943;SDS011;11136;48.778;9.126;2023-03-01T15:38:28;20.10;;;14.38;;
21943;SDS011;11136;48.778;9.126;2023-03-01T15:40:59;19.73;;;14.13;;
21943;SDS011;11136;48.778;9.126;2023-03-01T15:48:47;21.23;;;14.38;;
21943;SDS011;11136;48.778;9.126;2023-03-01T15:51:17;23.13;;;15.02;;
21943;SDS011;11136;48.778;9.126;2023-03-01T15:53:46;24.38;;;13.10;;
21943;SDS011;11136;48.778;9.126;2023-03-01T15:56:16;21.50;;;13.43;;
21943;SDS011;11136;48.778;9.126;2023-03-01T15:58:41;21.75;;;13.70;;
21943;SDS011;11136;48.778;9.126;2023-03-01T16:01:14;20.50;;;13.02;;
21943;SDS011;11136;48.778;9.126;2023-03-01T16:03:41;20.42;;;13.43;;
21943;SDS011;11136;48.778;9.126;2023-03-01T16:06:11;24.08;;;15.18;;
21943;SDS011;11136;48.778;9.126;2023-03-01T16:08:37;19.63;;;13.38;;
21943;SDS011;11136;48.778;9.126;2023-03-01T16:11:09;24.33;;;13.60;;
21943;SDS011;11136;48.778;9.126;2023-03-01T16:13:43;22.23;;;13.82;;
21943;SDS011;11136;48.778;9.126;2023-03-01T16:16:09;18.13;;;13.25;;
21943;SDS011;11136;48.778;9.126;2023-03-01T16:18:38;21.33;;;13.93;;
21943;SDS011;11136;48.778;9.126;2023-03-01T16:21:04;24.73;;;13.93;;
21943;SDS011;11136;48.778;9.126;2023-03-01T16:23:30;20.33;;;13.48;;
21943;SDS011;11136;48.778;9.126;2023-03-01T16:25:58;20.98;;;13.43;;
21943;SDS011;11136;48.778;9.126;2023-03-01T16:28:25;20.38;;;13.20;;
21943;SDS011;11136;48.778;9.126;2023-03-01T16:30:51;19.23;;;13.27;;
21943;SDS011;11136;48.778;9.126;2023-03-01T16:33:17;20.17;;;12.23;;
21943;SDS011;11136;48.778;9.126;2023-03-01T16:35:43;20.25;;;12.57;;
21943;SDS011;11136;48.778;9.126;2023-03-01T16:38:09;25.50;;;13.18;;
21943;SDS011;11136;48.778;9.126;2023-03-01T16:40:35;22.45;;;13.23;;